Time;durP1;ratioP1;P1;durP2;ratioP2;P2;SDS_P1;SDS_P2;PMS_P1;PMS_P2;Temp;Humidity;BMP_temperature;BMP_pressure;BME280_temperature;BME280_humidity;BME280_pressure;Samples;Min_cycle;Max_cycle;Signal;HPM_P1;HPM_P2
2022/12/04 00:00:38;;;;;;;;;;;;;;;21.58;40.35;95992.44;6102276;19;1831;-61
2022/12/04 00:02:42;;;;;;;;;;;;;;;21.57;40.17;95997.97;6095619;19;2038;-61
2022/12/04 00:04:45;;;;;;;;;;;;;;;21.57;39.90;95998.84;6091203;19;1760;-61
2022/12/04 00:06:49;;;;;;;;;;;;;;;21.58;40.12;95995.13;6090427;19;1347;-61
2022/12/04 00:08:52;;;;;;;;;;;;;;;21.57;40.20;96000.66;6085003;19;1327;-61
2022/12/04 00:10:56;;;;;;;;;;;;;;;21.56;40.17;96007.84;6075855;19;2392;-61
2022/12/04 00:12:59;;;;;;;;;;;;;;;;;;6097242;19;1852;-61
2022/12/04 00:15:03;;;;;;;;;;;;;;;;;;6087703;19;2072;-61
2022/12/04 00:17:09;;;;;;;;;;;;;;;21.56;39.99;96007.84;6098417;19;1182;-61
2022/12/04 00:19:12;;;;;;;;;;;;;;;21.56;39.86;96007.84;6094873;19;1126;-62
2022/12/04 00:21:19;;;;;;;;;;;;;;;21.60;39.91;96011.81;6069868;19;1569;-61
2022/12/04 00:23:22;;;;;;;;;;;;;;;21.61;40.19;96018.81;6094812;19;1268;-62
2022/12/04 00:25:25;;;;;;;;;;;;;;;21.56;39.96;96023.91;6097820;19;2132;-61
2022/12/04 00:27:29;;;;;;;;;;;;;;;21.57;40.11;96030.06;6096267;19;1706;-61
2022/12/04 00:29:32;;;;;;;;;;;;;;;21.59;40.12;96015.50;6095433;19;1081;-61
2022/12/04 00:31:35;;;;;;;;;;;;;;;21.64;39.82;96012.25;6092308;19;2160;-59
2022/12/04 00:33:41;;;;;;;;;;;;;;;21.53;39.73;96012.78;6082157;19;2658;-60
2022/12/04 00:35:46;;;;;;;;;;;;;;;21.58;40.13;96029.91;6103115;19;2148;-61
2022/12/04 00:37:50;;;;;;;;;;;;;;;21.58;39.92;96026.41;6100624;19;2047;-61
2022/12/04 00:39:53;;;;;;;;;;;;;;;21.54;40.05;96022.44;6100472;19;2018;-61
2022/12/04 00:41:56;;;;;;;;;;;;;;;21.58;39.80;96021.88;6098074;19;1825;-60
2022/12/04 00:44:00;;;;;;;;;;;;;;;21.58;40.06;96021.06;6073675;19;1945;-60
2022/12/04 00:46:03;;;;;;;;;;;;;;;21.57;39.62;96024.72;6090615;19;1648;-60
2022/12/04 00:48:07;;;;;;;;;;;;;;;21.63;39.87;96018.63;6095716;19;1551;-61
2022/12/04 00:50:13;;;;;;;;;;;;;;;21.53;39.61;96004.75;6100466;19;1637;-59
2022/12/04 00:52:16;;;;;;;;;;;;;;;21.58;39.81;96016.53;6096827;19;2130;-59
2022/12/04 00:54:20;;;;;;;;;;;;;;;21.62;39.68;96022.31;6094401;19;1675;-59
2022/12/04 00:56:24;;;;;;;;;;;;;;;21.59;40.10;96020.03;6088360;19;2119;-60
2022/12/04 00:58:27;;;;;;;;;;;;;;;21.60;39.87;96014.50;6103897;19;1918;-59
2022/12/04 01:00:31;;;;;;;;;;;;;;;21.58;39.73;96024.53;6099116;19;1109;-62
2022/12/04 01:02:34;;;;;;;;;;;;;;;21.57;39.92;96030.94;6098023;19;2086;-60
2022/12/04 01:04:37;;;;;;;;;;;;;;;21.53;40.08;96023.47;6094409;19;1151;-60
2022/12/04 01:06:43;;;;;;;;;;;;;;;21.54;40.03;96031.31;6069941;19;1738;-61
2022/12/04 01:08:48;;;;;;;;;;;;;;;21.50;39.96;96021.19;6091097;19;1650;-61
2022/12/04 01:10:52;;;;;;;;;;;;;;;21.53;40.03;96018.13;6098496;19;1923;-61
2022/12/04 01:12:55;;;;;;;;;;;;;;;21.55;39.88;96021.44;6095599;19;1966;-60
2022/12/04 01:14:59;;;;;;;;;;;;;;;21.56;39.97;96018.56;6094739;19;1181;-61
2022/12/04 01:17:02;;;;;;;;;;;;;;;21.58;39.57;96011.16;6091182;19;1242;-60
2022/12/04 01:19:06;;;;;;;;;;;;;;;21.55;39.76;96018.75;6076825;19;2119;-61
2022/12/04 01:21:09;;;;;;;;;;;;;;;21.59;39.54;96012.00;6092638;19;1236;-61
2022/12/04 01:23:15;;;;;;;;;;;;;;;21.53;40.09;96008.25;6095941;19;1934;-61
2022/12/04 01:25:19;;;;;;;;;;;;;;;21.56;40.00;96002.50;6094702;19;1132;-61
2022/12/04 01:27:22;;;;;;;;;;;;;;;21.60;39.59;96009.13;6094082;19;1172;-61
2022/12/04 01:29:25;;;;;;;;;;;;;;;21.59;39.70;96007.47;6065612;19;2234;-61
2022/12/04 01:31:28;;;;;;;;;;;;;;;21.60;39.50;96008.31;6094393;19;2226;-61
2022/12/04 01:33:32;;;;;;;;;;;;;;;21.56;39.91;96005.19;6099076;19;2081;-61
2022/12/04 01:35:35;;;;;;;;;;;;;;;21.56;39.91;96002.50;6099242;19;2094;-60
2022/12/04 01:37:38;;;;;;;;;;;;;;;21.54;40.19;96003.72;6095335;19;1875;-61
2022/12/04 01:39:44;;;;;;;;;;;;;;;21.55;40.18;96011.56;6092695;19;1134;-60
2022/12/04 01:41:48;;;;;;;;;;;;;;;21.52;40.15;96006.59;6074444;19;2173;-62
2022/12/04 01:44:06;;;;;;;;;;;;;;;21.54;40.49;96004.56;6096169;19;3123;-62
2022/12/04 01:46:10;;;;;;;;;;;;;;;21.62;39.90;96009.75;6098841;19;2262;-60
2022/12/04 01:48:18;;;;;;;;;;;;;;;21.58;39.98;96005.00;6097600;19;2023;-60
2022/12/04 01:50:21;;;;;;;;;;;;;;;21.60;39.98;96005.66;6093395;19;1999;-60
2022/12/04 01:52:25;;;;;;;;;;;;;;;21.59;40.33;96001.28;6067855;19;2115;-61
2022/12/04 01:54:31;;;;;;;;;;;;;;;21.54;40.25;95999.22;6096990;19;1904;-61
2022/12/04 01:56:39;;;;;;;;;;;;;;;21.52;40.26;96001.25;6096429;19;1681;-62
2022/12/04 01:58:45;;;;;;;;;;;;;;;21.57;40.10;95997.97;6098304;19;1834;-62
2022/12/04 02:00:49;;;;;;;;;;;;;;;21.54;40.51;96001.91;6095967;19;1856;-61
2022/12/04 02:02:52;;;;;;;;;;;;;;;;;;6084469;19;1885;-61
2022/12/04 02:04:55;;;;;;;;;;;;;;;;;;6081998;19;1979;-61
2022/12/04 02:06:58;;;;;;;;;;;;;;;;;;6096660;19;1743;-58
2022/12/04 02:09:01;;;;;;;;;;;;;;;;;;6099487;19;2038;-59
2022/12/04 02:11:09;;;;;;;;;;;;;;;21.58;40.23;95995.13;6096504;19;2030;-60
2022/12/04 02:13:18;;;;;;;;;;;;;;;21.59;40.00;95991.41;6101810;19;1847;-62
2022/12/04 02:15:24;;;;;;;;;;;;;;;21.54;40.39;95991.19;6067908;19;2044;-61
2022/12/04 02:17:29;;;;;;;;;;;;;;;21.49;40.63;95985.59;6098311;19;1918;-60
2022/12/04 02:19:43;;;;;;;;;;;;;;;21.54;40.10;95998.38;6097507;19;1584;-61
2022/12/04 02:21:48;;;;;;;;;;;;;;;21.52;40.20;96000.44;6092503;19;1685;-62
2022/12/04 02:23:51;;;;;;;;;;;;;;;;;;6097323;19;2085;-61
2022/12/04 02:26:01;;;;;;;;;;;;;;;21.54;40.13;95985.00;6072681;19;2153;-61
2022/12/04 02:28:10;;;;;;;;;;;;;;;21.55;40.13;95998.19;6095534;19;1652;-62
2022/12/04 02:30:14;;;;;;;;;;;;;;;21.57;39.95;95990.81;6092737;19;1506;-61
2022/12/04 02:32:21;;;;;;;;;;;;;;;21.55;40.45;95990.16;6096058;19;2066;-63
2022/12/04 02:34:27;;;;;;;;;;;;;;;21.52;40.22;95985.22;6092103;19;2114;-62
2022/12/04 02:36:31;;;;;;;;;;;;;;;21.43;40.14;95970.34;6090801;19;2211;-60
2022/12/04 02:38:37;;;;;;;;;;;;;;;21.54;39.86;95982.31;6075344;19;2084;-62
2022/12/04 02:40:46;;;;;;;;;;;;;;;21.55;39.87;95984.00;6097046;19;1712;-62
2022/12/04 02:42:51;;;;;;;;;;;;;;;21.53;39.93;95986.84;6090427;19;2155;-61
2022/12/04 02:44:59;;;;;;;;;;;;;;;21.53;39.67;95984.19;6091778;19;1080;-61
2022/12/04 02:47:01;;;;;;;;;;;;;;;;;;6095431;19;1812;-62
2022/12/04 02:49:08;;;;;;;;;;;;;;;21.55;39.75;95984.00;6067542;19;2314;-60
2022/12/04 02:51:13;;;;;;;;;;;;;;;21.57;39.55;95981.94;6095261;19;2076;-60
2022/12/04 02:53:18;;;;;;;;;;;;;;;21.57;39.48;95987.28;6089390;19;2059;-59
2022/12/04 02:55:24;;;;;;;;;;;;;;;21.54;39.75;95980.50;6093052;19;2057;-59
2022/12/04 02:57:29;;;;;;;;;;;;;;;21.54;40.01;95983.19;6096114;19;1952;-58
2022/12/04 02:59:35;;;;;;;;;;;;;;;21.54;39.70;95982.31;6084512;19;2033;-60
2022/12/04 03:01:44;;;;;;;;;;;;;;;21.52;39.71;95979.84;6083197;19;2289;-61
2022/12/04 03:03:50;;;;;;;;;;;;;;;21.51;40.17;95983.53;6090620;19;1604;-60
2022/12/04 03:05:57;;;;;;;;;;;;;;;21.52;40.09;95993.22;6091892;19;1796;-61
2022/12/04 03:08:02;;;;;;;;;;;;;;;21.53;39.93;95992.19;6094280;19;2147;-60
2022/12/04 03:10:07;;;;;;;;;;;;;;;21.53;40.00;95992.19;6092943;19;1313;-61
2022/12/04 03:12:13;;;;;;;;;;;;;;;21.52;39.72;95987.88;6067851;19;2013;-60
2022/12/04 03:14:19;;;;;;;;;;;;;;;21.51;39.90;95983.53;6096486;19;2335;-60
2022/12/04 03:16:26;;;;;;;;;;;;;;;21.54;39.87;95983.19;6097113;19;1669;-58
2022/12/04 03:18:34;;;;;;;;;;;;;;;21.58;39.71;95980.94;6099344;19;2192;-60
2022/12/04 03:20:38;;;;;;;;;;;;;;;21.57;40.35;95981.94;6094396;19;2066;-60
2022/12/04 03:22:43;;;;;;;;;;;;;;;21.58;40.05;95978.25;6077438;19;2450;-60
2022/12/04 03:24:49;;;;;;;;;;;;;;;21.60;40.17;95982.41;6094047;19;2277;-60
2022/12/04 03:26:52;;;;;;;;;;;;;;;;;;6095595;19;1741;-60
2022/12/04 03:28:59;;;;;;;;;;;;;;;21.57;39.98;95972.09;6096899;19;1343;-60
2022/12/04 03:31:06;;;;;;;;;;;;;;;21.54;40.38;95971.63;6099751;19;1846;-60
2022/12/04 03:33:13;;;;;;;;;;;;;;;21.58;40.16;95979.09;6099288;19;1919;-59
2022/12/04 03:35:22;;;;;;;;;;;;;;;21.58;40.13;95975.59;6067530;19;2133;-59
2022/12/04 03:37:28;;;;;;;;;;;;;;;21.55;39.98;95973.31;6093951;19;1830;-60
2022/12/04 03:39:36;;;;;;;;;;;;;;;21.54;40.22;95972.47;6093698;19;1081;-60
2022/12/04 03:41:47;;;;;;;;;;;;;;;21.55;40.15;95974.13;6094692;19;1932;-60
2022/12/04 03:43:53;;;;;;;;;;;;;;;21.56;40.30;95973.09;6093023;19;1798;-60
2022/12/04 03:45:57;;;;;;;;;;;;;;;21.60;40.09;95979.72;6063585;19;2019;-61
2022/12/04 03:48:03;;;;;;;;;;;;;;;21.61;40.32;95983.22;6090117;19;1218;-61
2022/12/04 03:50:15;;;;;;;;;;;;;;;21.67;40.42;95977.09;6089843;19;1413;-61
2022/12/04 03:52:24;;;;;;;;;;;;;;;21.66;40.19;95978.94;6095633;19;2047;-61
2022/12/04 03:54:31;;;;;;;;;;;;;;;21.60;40.24;95987.75;6095127;19;1861;-61
2022/12/04 03:56:37;;;;;;;;;;;;;;;21.60;40.24;95974.38;6077464;19;1917;-61
2022/12/04 03:58:42;;;;;;;;;;;;;;;21.60;40.63;95973.56;6078425;19;2048;-61
2022/12/04 04:00:46;;;;;;;;;;;;;;;21.59;40.52;95975.38;6093782;19;2082;-61
2022/12/04 04:02:57;;;;;;;;;;;;;;;21.63;40.48;95971.31;6094158;19;2265;-61
2022/12/04 04:05:02;;;;;;;;;;;;;;;21.61;40.46;95972.53;6092874;19;2116;-61
2022/12/04 04:07:09;;;;;;;;;;;;;;;21.61;40.52;95978.69;6093938;19;1818;-61
2022/12/04 04:09:17;;;;;;;;;;;;;;;21.53;40.09;95980.69;6063224;19;1946;-61
2022/12/04 04:11:24;;;;;;;;;;;;;;;21.54;40.09;95983.19;6095201;19;2025;-60
2022/12/04 04:25:00;;;;;;;;;;;;;;;21.57;39.63;95980.13;6095878;19;1626;-61
2022/12/04 04:27:03;;;;;;;;;;;;;;;21.55;39.49;95981.31;6093460;19;2023;-60
2022/12/04 04:29:06;;;;;;;;;;;;;;;21.61;39.87;95977.88;6088958;19;2067;-62
2022/12/04 04:31:18;;;;;;;;;;;;;;;21.57;39.67;95976.59;6066757;19;2152;-60
2022/12/04 04:33:21;;;;;;;;;;;;;;;21.58;40.09;95983.59;6094544;19;2180;-61
2022/12/04 04:35:29;;;;;;;;;;;;;;;21.54;40.19;95983.19;6091696;19;2084;-60
2022/12/04 04:37:36;;;;;;;;;;;;;;;21.58;39.71;95995.13;6094804;19;2011;-61
2022/12/04 04:39:41;;;;;;;;;;;;;;;21.59;39.93;95979.91;6085674;19;1818;-61
2022/12/04 04:41:51;;;;;;;;;;;;;;;21.61;40.00;95989.38;6081170;19;2082;-60
2022/12/04 04:43:59;;;;;;;;;;;;;;;21.60;39.80;95986.91;6077143;19;1975;-61
2022/12/04 04:46:06;;;;;;;;;;;;;;;21.59;39.94;95986.06;6093637;19;1854;-61
2022/12/04 04:48:11;;;;;;;;;;;;;;;21.58;39.76;95995.13;6091922;19;1842;-61
2022/12/04 04:50:16;;;;;;;;;;;;;;;21.58;39.81;95997.81;6088682;19;2144;-61
2022/12/04 04:52:22;;;;;;;;;;;;;;;21.61;40.17;95997.41;6092100;19;1753;-61
2022/12/04 04:54:26;;;;;;;;;;;;;;;21.57;39.78;95987.28;6062853;19;2325;-61
2022/12/04 04:56:30;;;;;;;;;;;;;;;21.61;40.25;95993.91;6091452;19;2020;-61
2022/12/04 04:58:36;;;;;;;;;;;;;;;21.61;39.61;95988.56;6095775;19;2038;-61
2022/12/04 05:00:40;;;;;;;;;;;;;;;21.62;39.59;95993.69;6094054;19;1885;-62
2022/12/04 05:02:43;;;;;;;;;;;;;;;21.59;40.19;95991.41;6093530;19;1808;-61
2022/12/04 05:04:46;;;;;;;;;;;;;;;21.64;39.89;95993.53;6071671;19;2187;-60
2022/12/04 05:06:50;;;;;;;;;;;;;;;21.67;39.89;96006.50;6097270;19;2021;-60
2022/12/04 05:08:53;;;;;;;;;;;;;;;21.63;40.01;95999.91;6100652;19;1899;-60
2022/12/04 05:10:56;;;;;;;;;;;;;;;21.68;39.67;96000.97;6101133;19;1857;-61
2022/12/04 05:13:01;;;;;;;;;;;;;;;21.73;40.03;96003.06;6099991;19;1921;-63
2022/12/04 05:15:07;;;;;;;;;;;;;;;21.74;39.76;96001.19;6098525;19;1962;-62
2022/12/04 05:17:13;;;;;;;;;;;;;;;21.72;39.71;96006.75;6073689;19;2128;-62
2022/12/04 05:21:32;;;;;;;;;;;;;;;21.76;39.40;96012.53;6104921;19;1725;-62
2022/12/04 05:23:35;;;;;;;;;;;;;;;21.75;39.32;96009.03;6103199;19;1467;-60
2022/12/04 05:25:38;;;;;;;;;;;;;;;21.70;39.54;96016.81;6102055;19;2253;-62
2022/12/04 05:27:42;;;;;;;;;;;;;;;21.66;39.96;96010.22;6075432;19;2181;-60
2022/12/04 05:29:45;;;;;;;;;;;;;;;21.68;39.87;96002.81;6095101;19;1905;-60
2022/12/04 05:31:51;;;;;;;;;;;;;;;21.64;40.00;96013.06;6092603;19;1699;-60
2022/12/04 05:33:54;;;;;;;;;;;;;;;21.59;39.96;96015.50;6095723;19;1632;-60
2022/12/04 05:35:58;;;;;;;;;;;;;;;21.68;39.72;96011.69;6094647;19;1853;-60
2022/12/04 05:38:01;;;;;;;;;;;;;;;21.65;39.36;96017.41;6098255;19;1908;-60
2022/12/04 05:40:05;;;;;;;;;;;;;;;21.70;39.15;96013.31;6071971;19;2211;-60
2022/12/04 05:42:08;;;;;;;;;;;;;;;21.63;39.25;96007.94;6095694;19;1847;-60
2022/12/04 05:44:12;;;;;;;;;;;;;;;19.42;37.45;96008.88;6095575;19;1755;-61
2022/12/04 05:46:15;;;;;;;;;;;;;;;18.38;38.18;96025.31;6098212;19;2036;-61
2022/12/04 05:48:21;;;;;;;;;;;;;;;17.08;38.53;96030.69;6097945;19;2093;-62
2022/12/04 05:50:24;;;;;;;;;;;;;;;16.95;38.33;96025.00;6066776;19;1878;-61
2022/12/04 05:52:28;;;;;;;;;;;;;;;18.53;37.34;96018.28;6096736;19;2068;-61
2022/12/04 05:54:31;;;;;;;;;;;;;;;19.67;36.97;96019.34;6091076;19;1850;-61
2022/12/04 05:56:34;;;;;;;;;;;;;;;20.25;37.03;96038.25;6097750;19;2020;-60
2022/12/04 05:58:38;;;;;;;;;;;;;;;20.57;36.45;96029.03;6097669;19;1880;-61
2022/12/04 06:00:42;;;;;;;;;;;;;;;20.76;36.17;96035.63;6098049;19;2014;-61
2022/12/04 06:02:45;;;;;;;;;;;;;;;20.88;36.30;96036.78;6068881;19;2109;-61
2022/12/04 06:04:51;;;;;;;;;;;;;;;21.01;35.63;96038.78;6092177;19;1870;-61
2022/12/04 06:06:54;;;;;;;;;;;;;;;21.12;35.68;96037.47;6097853;19;1685;-61
2022/12/04 06:08:58;;;;;;;;;;;;;;;21.19;35.95;96033.03;6094370;19;2160;-61
2022/12/04 06:11:02;;;;;;;;;;;;;;;21.26;35.63;96031.25;6095520;19;2126;-61
2022/12/04 06:13:06;;;;;;;;;;;;;;;21.26;35.79;96030.44;6070580;19;2088;-59
2022/12/04 06:15:10;;;;;;;;;;;;;;;21.23;35.58;96040.50;6095991;19;1981;-59
2022/12/04 06:17:13;;;;;;;;;;;;;;;21.20;35.79;96035.53;6107294;19;2095;-60
2022/12/04 06:19:17;;;;;;;;;;;;;;;21.20;36.20;96040.88;6099788;19;1909;-59
2022/12/04 06:21:24;;;;;;;;;;;;;;;21.17;36.16;96035.03;6097213;19;1890;-60
2022/12/04 06:23:28;;;;;;;;;;;;;;;21.18;36.13;96039.41;6100688;19;1861;-61
2022/12/04 06:25:31;;;;;;;;;;;;;;;21.21;35.70;96047.88;6064716;19;1885;-60
2022/12/04 06:27:34;;;;;;;;;;;;;;;21.26;35.98;96041.13;6092877;19;1847;-61
2022/12/04 06:29:37;;;;;;;;;;;;;;;21.30;35.85;96050.41;6093651;19;2089;-61
2022/12/04 06:31:41;;;;;;;;;;;;;;;21.29;35.89;96038.06;6095555;19;2191;-61
2022/12/04 06:33:44;;;;;;;;;;;;;;;21.23;36.01;96032.47;6095199;19;2028;-61
2022/12/04 06:35:48;;;;;;;;;;;;;;;21.20;36.11;96034.72;6068756;19;2229;-61
2022/12/04 06:37:54;;;;;;;;;;;;;;;21.21;35.78;96039.84;6091936;19;2235;-61
2022/12/04 06:39:57;;;;;;;;;;;;;;;21.23;35.98;96045.84;6094283;19;1689;-61
2022/12/04 06:42:00;;;;;;;;;;;;;;;21.29;35.96;96048.78;6095105;19;2013;-61
2022/12/04 06:44:03;;;;;;;;;;;;;;;21.32;35.83;96049.22;6095726;19;2110;-61
2022/12/04 06:46:08;;;;;;;;;;;;;;;21.29;35.51;96048.78;6095653;19;2034;-60
2022/12/04 06:48:11;;;;;;;;;;;;;;;21.22;35.66;96060.19;6065937;19;2082;-61
2022/12/04 06:50:14;;;;;;;;;;;;;;;21.21;35.73;96055.88;6094590;19;1888;-59
2022/12/04 06:52:18;;;;;;;;;;;;;;;21.15;35.95;96053.94;6096641;19;1508;-62
2022/12/04 06:54:24;;;;;;;;;;;;;;;21.09;35.38;96060.06;6095498;19;2027;-61
2022/12/04 06:56:29;;;;;;;;;;;;;;;21.07;35.64;96059.41;6093546;19;2135;-61
2022/12/04 06:58:33;;;;;;;;;;;;;;;21.00;35.25;96054.00;6060610;19;1863;-61
2022/12/04 07:00:36;;;;;;;;;;;;;;;20.84;36.04;96064.91;6092586;19;2045;-64
2022/12/04 07:02:39;;;;;;;;;;;;;;;21.08;36.11;96057.56;6094946;19;1938;-62
2022/12/04 07:04:42;;;;;;;;;;;;;;;21.14;35.34;96056.78;6095818;19;2003;-62
2022/12/04 07:06:46;;;;;;;;;;;;;;;21.26;35.98;96058.00;6094826;19;2060;-61
2022/12/04 07:08:50;;;;;;;;;;;;;;;21.30;35.78;96055.75;6100893;19;1768;-62
2022/12/04 07:10:56;;;;;;;;;;;;;;;21.18;35.07;96050.91;6076205;19;2246;-62
2022/12/04 07:12:59;;;;;;;;;;;;;;;20.99;35.19;96044.31;6105176;19;2262;-61
2022/12/04 07:15:03;;;;;;;;;;;;;;;20.87;34.93;96055.69;6098157;19;1838;-62
2022/12/04 07:17:06;;;;;;;;;;;;;;;20.89;35.01;96042.97;6095105;19;1836;-63
2022/12/04 07:19:10;;;;;;;;;;;;;;;21.12;36.39;96054.31;6085408;19;1992;-60
2022/12/04 07:21:16;;;;;;;;;;;;;;;21.32;36.42;96048.38;6066691;19;2139;-62
2022/12/04 07:23:19;;;;;;;;;;;;;;;21.26;36.41;96055.31;6091676;19;1985;-61
2022/12/04 07:25:23;;;;;;;;;;;;;;;21.23;36.99;96064.53;6093628;19;1705;-61
2022/12/04 07:27:31;;;;;;;;;;;;;;;21.38;38.10;96069.00;6092118;19;1336;-62
2022/12/04 07:29:34;;;;;;;;;;;;;;;21.47;39.47;96051.81;6091486;19;1601;-68
2022/12/04 07:31:38;;;;;;;;;;;;;;;21.44;38.34;96055.69;6094002;19;2025;-61
2022/12/04 07:33:41;;;;;;;;;;;;;;;21.42;38.29;96056.91;6066527;19;2177;-58
2022/12/04 07:35:45;;;;;;;;;;;;;;;21.47;38.51;96048.31;6093439;19;1850;-61
2022/12/04 07:37:48;;;;;;;;;;;;;;;21.48;38.48;96048.09;6094667;19;2037;-59
2022/12/04 07:39:53;;;;;;;;;;;;;;;21.43;38.83;96056.72;6094314;19;2208;-61
2022/12/04 07:41:56;;;;;;;;;;;;;;;21.49;38.40;96057.78;6096047;19;2158;-62
2022/12/04 07:44:02;;;;;;;;;;;;;;;21.53;37.94;96059.06;6067384;19;2222;-61
2022/12/04 07:46:06;;;;;;;;;;;;;;;21.52;37.59;96065.44;6092192;19;1924;-62
2022/12/04 07:48:10;;;;;;;;;;;;;;;21.50;37.61;96064.78;6092309;19;1926;-61
2022/12/04 07:50:13;;;;;;;;;;;;;;;21.45;37.92;96073.41;6093962;19;2114;-61
2022/12/04 07:52:16;;;;;;;;;;;;;;;21.40;38.48;96056.28;6095345;19;1666;-59
2022/12/04 07:54:20;;;;;;;;;;;;;;;21.43;38.40;96062.06;6092901;19;1776;-60
2022/12/04 07:56:23;;;;;;;;;;;;;;;21.52;37.85;96049.41;6068097;19;2065;-61
2022/12/04 07:58:26;;;;;;;;;;;;;;;21.54;37.91;96044.69;6091676;19;1969;-60
2022/12/04 08:00:32;;;;;;;;;;;;;;;21.55;37.68;96048.19;6093610;19;1801;-60
2022/12/04 08:02:36;;;;;;;;;;;;;;;21.52;37.62;96052.06;6094915;19;2091;-61
2022/12/04 08:04:39;;;;;;;;;;;;;;;21.51;37.58;96054.91;6093595;19;1936;-61
2022/12/04 08:06:42;;;;;;;;;;;;;;;21.50;37.39;96048.75;6066054;19;2072;-62
2022/12/04 08:08:46;;;;;;;;;;;;;;;21.47;37.38;96059.00;6093017;19;1710;-61
2022/12/04 08:10:49;;;;;;;;;;;;;;;21.44;37.42;96068.25;6086424;19;1883;-58
2022/12/04 08:12:53;;;;;;;;;;;;;;;21.44;37.36;96062.88;6080991;19;2013;-67
2022/12/04 08:14:56;;;;;;;;;;;;;;;21.47;37.77;96065.19;6086473;19;1908;-67
2022/12/04 08:17:02;;;;;;;;;;;;;;;21.50;37.53;96047.94;6091890;19;1818;-66
2022/12/04 08:19:05;;;;;;;;;;;;;;;21.49;37.69;96044.44;6071092;19;2300;-62
2022/12/04 08:21:09;;;;;;;;;;;;;;;21.50;37.24;96045.25;6093244;19;1853;-62
2022/12/04 08:23:13;;;;;;;;;;;;;;;21.48;36.66;96042.75;6091193;19;2033;-61
2022/12/04 08:25:17;;;;;;;;;;;;;;;21.45;36.51;96049.34;6083460;19;2937;-61
2022/12/04 08:27:20;;;;;;;;;;;;;;;21.47;36.51;96057.16;6091490;19;1929;-67
2022/12/04 08:29:23;;;;;;;;;;;;;;;21.55;36.58;96049.00;6068152;19;2009;-65
2022/12/04 08:31:28;;;;;;;;;;;;;;;21.55;36.24;96040.16;6091605;19;2128;-65
2022/12/04 08:33:34;;;;;;;;;;;;;;;21.58;36.21;96037.91;6094992;19;1847;-67
2022/12/04 08:35:37;;;;;;;;;;;;;;;;;;6092239;19;1925;-67
2022/12/04 08:37:40;;;;;;;;;;;;;;;21.58;35.97;96043.28;6096906;19;2075;-67
2022/12/04 08:39:44;;;;;;;;;;;;;;;21.60;36.30;96046.59;6094661;19;1970;-67
2022/12/04 08:41:47;;;;;;;;;;;;;;;21.58;36.01;96043.28;6071205;19;2183;-67
2022/12/04 08:43:53;;;;;;;;;;;;;;;21.64;35.64;96045.16;6096890;19;1766;-66
2022/12/04 08:45:58;;;;;;;;;;;;;;;21.65;35.82;96044.16;6098317;19;1847;-66
2022/12/04 08:48:02;;;;;;;;;;;;;;;21.65;35.84;96033.47;6101878;19;1961;-66
2022/12/04 08:50:08;;;;;;;;;;;;;;;21.61;35.92;96042.88;6098904;19;1979;-66
2022/12/04 08:52:12;;;;;;;;;;;;;;;21.65;35.90;96046.84;6072923;19;2094;-66
2022/12/04 08:54:17;;;;;;;;;;;;;;;21.63;35.73;96046.19;6094743;19;1408;-66
2022/12/04 08:56:20;;;;;;;;;;;;;;;21.64;35.86;96042.50;6089328;19;1841;-66
2022/12/04 08:58:23;;;;;;;;;;;;;;;21.63;35.87;96040.84;6097051;19;2068;-66
2022/12/04 09:00:27;;;;;;;;;;;;;;;21.65;35.51;96038.81;6096182;19;1862;-62
2022/12/04 09:02:30;;;;;;;;;;;;;;;21.62;35.91;96033.81;6094262;19;1197;-65
2022/12/04 09:04:33;;;;;;;;;;;;;;;21.65;35.79;96032.63;6073176;19;2104;-66
2022/12/04 09:06:39;;;;;;;;;;;;;;;21.66;36.09;96029.75;6108638;19;1942;-65
2022/12/04 09:08:43;;;;;;;;;;;;;;;21.70;36.13;96022.16;6106020;19;1825;-66
2022/12/04 09:10:46;;;;;;;;;;;;;;;21.71;36.00;96020.31;6109605;19;1974;-66
2022/12/04 09:12:50;;;;;;;;;;;;;;;21.73;36.38;96023.63;6101539;19;1785;-62
2022/12/04 09:14:53;;;;;;;;;;;;;;;21.68;36.59;96025.06;6070954;19;2114;-64
2022/12/04 09:16:56;;;;;;;;;;;;;;;21.66;36.70;96024.41;6095900;19;1908;-63
2022/12/04 09:19:00;;;;;;;;;;;;;;;21.67;36.33;96031.41;6092283;19;2187;-62
2022/12/04 09:21:04;;;;;;;;;;;;;;;21.68;36.66;96017.03;6095356;19;1628;-65
2022/12/04 09:23:10;;;;;;;;;;;;;;;21.68;36.87;96025.06;6094738;19;1922;-65
2022/12/04 09:25:13;;;;;;;;;;;;;;;21.66;36.94;96020.91;6103498;19;2048;-67
2022/12/04 09:27:17;;;;;;;;;;;;;;;21.66;37.01;96012.88;6102772;19;1787;-62
2022/12/04 09:29:20;;;;;;;;;;;;;;;21.64;36.54;96002.38;6127488;19;2100;-62
2022/12/04 09:31:24;;;;;;;;;;;;;;;21.65;36.48;96005.88;6120414;19;1061;-62
2022/12/04 09:33:29;;;;;;;;;;;;;;;21.62;36.88;96001.72;6122394;19;2076;-61
2022/12/04 09:35:32;;;;;;;;;;;;;;;21.63;36.80;96003.41;6122199;19;1847;-61
2022/12/04 09:37:37;;;;;;;;;;;;;;;21.60;37.09;96005.66;6095789;19;1584;-61
2022/12/04 09:39:43;;;;;;;;;;;;;;;21.58;37.19;96011.16;6123199;19;2138;-61
2022/12/04 09:42:02;;;;;;;;;;;;;;;21.58;37.36;96008.50;6118869;19;2020;-61
2022/12/04 09:44:06;;;;;;;;;;;;;;;21.60;37.56;95998.44;6123537;19;2102;-64
2022/12/04 09:46:11;;;;;;;;;;;;;;;21.55;37.22;95990.16;6121713;19;2012;-66
2022/12/04 09:48:17;;;;;;;;;;;;;;;21.59;37.79;95996.78;6108008;19;1718;-63
2022/12/04 09:50:23;;;;;;;;;;;;;;;21.62;37.94;95998.22;6108253;19;1908;-64
2022/12/04 09:52:32;;;;;;;;;;;;;;;21.60;37.90;95986.91;6124199;19;2384;-64
2022/12/04 09:54:39;;;;;;;;;;;;;;;21.62;37.77;95993.69;6121474;19;1825;-63
2022/12/04 09:56:45;;;;;;;;;;;;;;;21.63;37.49;95984.69;6121385;19;1959;-64
2022/12/04 09:58:51;;;;;;;;;;;;;;;21.54;37.76;95988.53;6120365;19;1890;-64
2022/12/04 10:00:56;;;;;;;;;;;;;;;21.59;38.04;95971.88;6091707;19;1913;-65
2022/12/04 10:03:02;;;;;;;;;;;;;;;21.64;37.75;95961.44;6119491;19;2122;-65
2022/12/04 10:05:06;;;;;;;;;;;;;;;21.65;37.90;95958.56;6122448;19;2943;-65
2022/12/04 10:07:15;;;;;;;;;;;;;;;21.68;37.82;95951.97;6124098;19;1927;-65
2022/12/04 10:09:22;;;;;;;;;;;;;;;21.70;37.73;95949.13;6122132;19;1819;-65
2022/12/04 10:11:32;;;;;;;;;;;;;;;21.68;37.27;95943.94;6107333;19;2116;-63
2022/12/04 10:13:50;;;;;;;;;;;;;;;21.65;37.74;95945.19;6107784;19;2119;-64
2022/12/04 10:16:02;;;;;;;;;;;;;;;21.63;37.36;95941.88;6120704;19;2191;-63
2022/12/04 10:18:21;;;;;;;;;;;;;;;21.66;37.41;95933.47;6123974;19;2064;-64
2022/12/04 10:20:31;;;;;;;;;;;;;;;21.65;37.46;95931.81;6124918;19;2090;-64
2022/12/04 10:22:37;;;;;;;;;;;;;;;21.62;37.32;95937.53;6118067;19;2093;-63
2022/12/04 10:24:43;;;;;;;;;;;;;;;21.62;37.44;95936.72;6103734;19;1921;-63
2022/12/04 10:26:49;;;;;;;;;;;;;;;21.61;37.32;95938.56;6121491;19;1862;-63
2022/12/04 10:28:57;;;;;;;;;;;;;;;21.61;37.23;95927.06;6123171;19;1907;-64
2022/12/04 10:31:04;;;;;;;;;;;;;;;21.60;36.97;95936.09;6120961;19;1918;-63
2022/12/04 10:33:15;;;;;;;;;;;;;;;21.59;37.34;95937.94;6121536;19;2008;-63
2022/12/04 10:35:22;;;;;;;;;;;;;;;21.57;37.11;95933.78;6094217;19;2005;-63
2022/12/04 10:37:26;;;;;;;;;;;;;;;21.57;36.93;95928.44;6119742;19;1956;-63
2022/12/04 10:39:35;;;;;;;;;;;;;;;21.58;37.25;95932.78;6120868;19;1652;-64
2022/12/04 10:41:42;;;;;;;;;;;;;;;21.59;37.23;95926.41;6122090;19;1979;-62
2022/12/04 10:43:47;;;;;;;;;;;;;;;21.59;37.64;95921.88;6123872;19;1823;-64
2022/12/04 10:45:51;;;;;;;;;;;;;;;21.70;37.68;95915.16;6107262;19;1658;-63
2022/12/04 10:47:58;;;;;;;;;;;;;;;21.79;37.22;95910.47;6110538;19;1820;-63
2022/12/04 10:50:04;;;;;;;;;;;;;;;21.86;37.20;95914.03;6119302;19;1951;-63
2022/12/04 10:52:08;;;;;;;;;;;;;;;21.92;37.32;95921.28;6118807;19;1953;-63
2022/12/04 10:54:18;;;;;;;;;;;;;;;21.97;36.80;95908.16;6117931;19;1809;-63
2022/12/04 10:56:23;;;;;;;;;;;;;;;22.00;36.78;95905.09;6119597;19;1920;-63
2022/12/04 10:58:29;;;;;;;;;;;;;;;21.95;36.77;95912.03;6094278;19;2029;-63
2022/12/04 11:00:34;;;;;;;;;;;;;;;22.01;36.78;95908.56;6121389;19;1920;-64
2022/12/04 11:02:39;;;;;;;;;;;;;;;22.08;37.11;95915.63;6118968;19;2094;-64
2022/12/04 11:04:52;;;;;;;;;;;;;;;22.07;37.23;95924.66;6119308;19;1852;-64
2022/12/04 11:07:03;;;;;;;;;;;;;;;22.10;36.98;95913.53;6118989;19;1676;-63
2022/12/04 11:09:07;;;;;;;;;;;;;;;22.07;37.52;95911.28;6091914;19;2116;-63
2022/12/04 11:11:13;;;;;;;;;;;;;;;22.10;37.01;95916.22;6119096;19;2101;-63
2022/12/04 11:13:19;;;;;;;;;;;;;;;22.08;37.45;95920.97;6114583;19;1961;-62
2022/12/04 11:15:23;;;;;;;;;;;;;;;22.06;37.13;95909.63;6113821;19;1945;-63
2022/12/04 11:17:27;;;;;;;;;;;;;;;22.06;37.19;95898.94;6119099;19;1850;-63